createdAt,value
2018-12-29T00:00:47.093Z,46.73
2018-12-29T00:03:48.770Z,44.10
2018-12-29T00:06:08.070Z,47.30
2018-12-29T00:09:09.890Z,47.17
2018-12-29T00:11:45.744Z,41.83
2018-12-29T00:14:15.107Z,47.87
2018-12-29T00:17:03.140Z,50.43
2018-12-29T00:19:51.129Z,40.30
2018-12-29T00:22:20.852Z,42.50
2018-12-29T00:25:08.858Z,46.40
2018-12-29T00:27:56.928Z,43.93
2018-12-29T00:31:06.193Z,48.77
2018-12-29T00:36:54.790Z,51.97
2018-12-29T00:39:42.831Z,45.50
2018-12-29T00:42:30.845Z,44.00
2018-12-29T00:45:09.160Z,46.93
2018-12-29T00:53:09.251Z,47.33
2018-12-29T01:01:06.108Z,45.20
2018-12-29T01:03:47.487Z,49.43
2018-12-29T01:06:28.340Z,48.60
2018-12-29T01:08:58.522Z,49.10
2018-12-29T01:11:28.200Z,52.67
2018-12-29T01:13:57.207Z,48.80
2018-12-29T01:16:27.199Z,46.57
2018-12-29T01:18:56.932Z,51.77
2018-12-29T01:21:25.954Z,47.00
2018-12-29T01:23:55.278Z,45.77
2018-12-29T01:26:25.006Z,48.43
2018-12-29T01:28:54.780Z,49.40
2018-12-29T01:31:24.798Z,47.90
2018-12-29T01:33:54.519Z,48.73
2018-12-29T01:36:24.207Z,43.93
2018-12-29T01:38:57.203Z,45.30
2018-12-29T01:41:26.886Z,50.50
2018-12-29T01:43:59.518Z,54.97
2018-12-29T01:46:29.479Z,49.70
2018-12-29T01:49:02.697Z,52.27
2018-12-29T01:51:31.766Z,52.17
2018-12-29T01:54:07.356Z,49.07
2018-12-29T01:56:36.378Z,57.70
2018-12-29T01:59:07.405Z,50.30
2018-12-29T02:01:36.527Z,54.97
2018-12-29T02:04:16.816Z,51.43
2018-12-29T02:08:21.043Z,53.70
2018-12-29T02:10:17.855Z,50.80
2018-12-29T02:13:34.564Z,55.53
2018-12-29T02:16:27.639Z,56.83
2018-12-29T02:19:27.748Z,49.80
2018-12-29T02:22:33.244Z,54.00
2018-12-29T02:28:42.912Z,53.93
2018-12-29T02:34:12.023Z,54.73
2018-12-29T02:37:11.466Z,50.63
2018-12-29T02:39:46.002Z,55.00
2018-12-29T02:42:23.776Z,61.97
2018-12-29T02:45:01.566Z,53.67
2018-12-29T02:47:42.302Z,58.20
2018-12-29T02:50:22.037Z,57.63
2018-12-29T02:53:05.363Z,63.50
2018-12-29T02:55:38.992Z,62.27
2018-12-29T02:58:06.423Z,62.60
2018-12-29T03:00:36.103Z,61.07
2018-12-29T03:03:05.798Z,71.60
2018-12-29T03:05:35.521Z,63.53
2018-12-29T03:08:04.605Z,62.47
2018-12-29T03:10:34.338Z,69.17
2018-12-29T03:13:06.312Z,65.50
2018-12-29T03:15:41.379Z,64.67
2018-12-29T03:18:07.311Z,67.10
2018-12-29T03:20:37.325Z,67.40
2018-12-29T03:23:07.000Z,63.33
2018-12-29T03:25:36.685Z,68.83
2018-12-29T03:28:06.763Z,65.20
2018-12-29T03:30:36.442Z,72.47
2018-12-29T03:33:06.500Z,71.43
2018-12-29T03:35:35.816Z,69.47
2018-12-29T03:38:08.795Z,74.83
2018-12-29T03:40:38.479Z,77.77
2018-12-29T03:43:13.759Z,66.13
2018-12-29T03:45:49.155Z,70.83
2018-12-29T03:48:14.410Z,86.60
2018-12-29T03:50:43.718Z,88.23
2018-12-29T03:53:18.227Z,77.67
2018-12-29T03:55:48.108Z,82.57
2018-12-29T03:58:20.042Z,80.97
2018-12-29T04:00:49.739Z,95.10
2018-12-29T04:03:22.715Z,80.77
2018-12-29T04:05:52.717Z,87.73
2018-12-29T04:08:24.148Z,75.60
2018-12-29T04:10:53.859Z,89.90
2018-12-29T04:13:26.466Z,79.57
2018-12-29T04:15:58.238Z,86.37
2018-12-29T04:18:29.405Z,83.07
2018-12-29T04:20:59.079Z,81.63
2018-12-29T04:23:33.768Z,87.83
2018-12-29T04:26:03.520Z,89.30
2018-12-29T04:28:35.552Z,78.53
2018-12-29T04:31:05.498Z,76.03
2018-12-29T04:33:37.226Z,84.60
2018-12-29T04:36:06.229Z,82.40
2018-12-29T04:38:41.171Z,86.60
2018-12-29T04:41:10.442Z,76.17
2018-12-29T04:43:43.515Z,81.27
2018-12-29T04:46:13.247Z,80.73
2018-12-29T04:48:46.891Z,85.23
2018-12-29T04:51:16.613Z,78.80
2018-12-29T04:53:49.410Z,91.33
2018-12-29T04:56:19.087Z,85.87
2018-12-29T04:58:52.915Z,80.07
2018-12-29T05:01:22.882Z,81.53
2018-12-29T05:03:55.139Z,76.47
2018-12-29T05:06:24.167Z,83.97
2018-12-29T05:08:58.095Z,76.83
2018-12-29T05:11:27.089Z,82.60
2018-12-29T05:14:03.517Z,79.67
2018-12-29T05:16:33.208Z,84.83
2018-12-29T05:19:04.859Z,79.30
2018-12-29T05:21:34.166Z,76.07
2018-12-29T05:24:07.791Z,78.17
2018-12-29T05:26:37.483Z,78.40
2018-12-29T05:29:15.059Z,74.37
2018-12-29T05:31:44.117Z,73.87
2018-12-29T05:34:14.722Z,76.17
2018-12-29T05:36:43.730Z,71.97
2018-12-29T05:39:18.282Z,76.90
2018-12-29T05:41:47.584Z,67.93
2018-12-29T05:44:20.774Z,77.40
2018-12-29T05:46:49.784Z,75.03
2018-12-29T05:49:22.345Z,75.53
2018-12-29T05:51:52.053Z,72.10
2018-12-29T05:54:25.392Z,73.07
2018-12-29T05:56:55.120Z,80.90
2018-12-29T05:59:27.471Z,77.17
2018-12-29T06:01:56.821Z,70.03
2018-12-29T06:04:29.855Z,74.50
2018-12-29T06:06:59.539Z,69.10
2018-12-29T06:09:31.851Z,71.90
2018-12-29T06:12:00.866Z,78.93
2018-12-29T06:14:36.750Z,79.87
2018-12-29T06:17:06.456Z,79.07
2018-12-29T06:19:39.199Z,74.27
2018-12-29T06:22:09.161Z,77.40
2018-12-29T06:24:40.487Z,72.47
2018-12-29T06:27:09.504Z,78.50
2018-12-29T06:29:44.181Z,76.20
2018-12-29T06:32:13.863Z,71.67
2018-12-29T06:34:45.768Z,70.30
2018-12-29T06:37:15.763Z,79.60
2018-12-29T06:39:49.131Z,74.90
2018-12-29T06:42:18.161Z,79.63
2018-12-29T06:44:52.451Z,71.83
2018-12-29T06:47:22.139Z,74.10
2018-12-29T06:49:55.579Z,82.67
2018-12-29T06:52:25.259Z,71.30
2018-12-29T06:54:57.439Z,85.60
2018-12-29T06:57:27.447Z,79.37
2018-12-29T07:00:01.186Z,68.60
2018-12-29T07:02:30.997Z,70.93
2018-12-29T07:05:05.383Z,70.63
2018-12-29T07:07:34.422Z,69.73
2018-12-29T07:10:06.897Z,77.60
2018-12-29T07:12:35.904Z,78.90
2018-12-29T07:15:11.988Z,68.03
2018-12-29T07:17:40.985Z,70.37
2018-12-29T07:20:13.782Z,75.40
2018-12-29T07:22:43.507Z,72.97
2018-12-29T07:25:16.135Z,70.63
2018-12-29T07:27:46.091Z,70.03
2018-12-29T07:30:19.459Z,72.23
2018-12-29T07:32:49.143Z,62.60
2018-12-29T07:35:21.649Z,66.87
2018-12-29T07:37:51.371Z,57.97
2018-12-29T07:40:23.444Z,69.77
2018-12-29T07:42:53.415Z,71.17
2018-12-29T07:45:25.509Z,56.00
2018-12-29T07:47:55.202Z,58.90
2018-12-29T07:50:28.514Z,52.83
2018-12-29T07:52:57.849Z,57.97
2018-12-29T07:55:32.081Z,58.60
2018-12-29T07:58:01.771Z,61.03
2018-12-29T08:00:34.612Z,55.60
2018-12-29T08:03:04.036Z,51.50
2018-12-29T08:05:36.684Z,55.73
2018-12-29T08:08:06.643Z,57.23
2018-12-29T08:10:38.832Z,47.17
2018-12-29T08:13:08.671Z,49.33
2018-12-29T08:15:41.635Z,51.30
2018-12-29T08:18:10.636Z,50.27
2018-12-29T08:20:44.226Z,54.27
2018-12-29T08:23:13.894Z,52.23
2018-12-29T08:25:48.320Z,47.70
2018-12-29T08:28:18.300Z,46.50
2018-12-29T08:30:50.582Z,55.87
2018-12-29T08:33:21.889Z,57.13
2018-12-29T08:35:53.016Z,42.97
2018-12-29T08:38:22.056Z,44.30
2018-12-29T08:40:56.293Z,46.17
2018-12-29T08:43:25.310Z,51.93
2018-12-29T08:46:00.164Z,47.37
2018-12-29T08:48:30.139Z,54.00
2018-12-29T08:51:03.644Z,51.33
2018-12-29T08:53:33.611Z,48.97
2018-12-29T08:56:05.479Z,46.60
2018-12-29T08:58:35.203Z,53.27
2018-12-29T09:01:11.518Z,51.00
2018-12-29T09:03:41.288Z,50.03
2018-12-29T09:06:13.544Z,45.33
2018-12-29T09:08:43.350Z,48.90
2018-12-29T09:11:15.825Z,46.30
2018-12-29T09:13:45.522Z,46.77
2018-12-29T09:16:18.449Z,46.70
2018-12-29T09:18:49.845Z,45.47
2018-12-29T09:21:21.062Z,44.50
2018-12-29T09:23:50.791Z,44.43
2018-12-29T09:26:24.342Z,47.43
2018-12-29T09:28:54.055Z,50.97
2018-12-29T09:31:27.115Z,52.00
2018-12-29T09:33:56.806Z,37.90
2018-12-29T09:36:29.831Z,41.83
2018-12-29T09:38:59.849Z,40.30
2018-12-29T09:41:32.717Z,38.17
2018-12-29T09:44:02.431Z,31.20
2018-12-29T09:46:35.701Z,35.83
2018-12-29T09:49:05.423Z,33.50
2018-12-29T09:51:37.775Z,35.97
2018-12-29T09:54:07.755Z,35.10
2018-12-29T09:56:41.120Z,35.73
2018-12-29T09:59:10.151Z,29.47
2018-12-29T10:01:41.849Z,31.27
2018-12-29T10:04:10.868Z,30.03
2018-12-29T10:06:45.277Z,30.50
2018-12-29T10:09:14.573Z,34.57
2018-12-29T10:11:49.860Z,27.47
2018-12-29T10:14:19.593Z,28.53
2018-12-29T10:16:52.359Z,26.27
2018-12-29T10:19:22.059Z,28.93
2018-12-29T10:21:54.917Z,29.10
2018-12-29T10:24:24.243Z,25.50
2018-12-29T10:26:58.113Z,26.67
2018-12-29T10:29:27.851Z,27.10
2018-12-29T10:31:59.719Z,25.67
2018-12-29T10:34:29.394Z,22.87
2018-12-29T10:37:03.215Z,21.03
2018-12-29T10:39:32.895Z,21.90
2018-12-29T10:42:08.021Z,26.27
2018-12-29T10:44:37.036Z,21.23
2018-12-29T10:47:11.887Z,23.07
2018-12-29T10:49:41.581Z,23.03
2018-12-29T10:52:14.646Z,21.47
2018-12-29T10:54:46.407Z,23.77
2018-12-29T10:57:16.663Z,21.10
2018-12-29T10:59:46.369Z,22.23
2018-12-29T11:02:18.468Z,20.33
2018-12-29T11:04:47.520Z,20.73
2018-12-29T11:07:21.020Z,24.80
2018-12-29T11:09:50.847Z,22.33
2018-12-29T11:12:23.916Z,18.30
2018-12-29T11:14:53.706Z,21.47
2018-12-29T11:17:26.065Z,19.20
2018-12-29T11:19:55.752Z,19.40
2018-12-29T11:22:30.530Z,19.17
2018-12-29T11:25:00.551Z,20.40
2018-12-29T11:27:33.345Z,15.77
2018-12-29T11:30:03.063Z,20.17
2018-12-29T11:32:35.289Z,27.27
2018-12-29T11:35:07.421Z,19.00
2018-12-29T11:37:38.453Z,15.97
2018-12-29T11:40:08.361Z,15.23
2018-12-29T11:42:40.923Z,14.57
2018-12-29T11:45:10.621Z,13.40
2018-12-29T11:47:49.752Z,16.07
2018-12-29T11:50:15.663Z,16.03
2018-12-29T11:52:46.345Z,15.17
2018-12-29T11:55:16.057Z,17.17
2018-12-29T11:57:50.013Z,15.63
2018-12-29T12:00:19.044Z,15.80
2018-12-29T12:02:51.944Z,14.33
2018-12-29T12:05:21.370Z,13.67
2018-12-29T12:07:54.269Z,15.40
2018-12-29T12:10:23.504Z,17.30
2018-12-29T12:12:57.920Z,15.90
2018-12-29T12:15:27.678Z,13.97
2018-12-29T12:18:01.342Z,15.53
2018-12-29T12:20:31.413Z,14.63
2018-12-29T12:23:05.415Z,14.13
2018-12-29T12:25:35.407Z,11.47
2018-12-29T12:28:06.462Z,15.93
2018-12-29T12:30:35.472Z,12.67
2018-12-29T12:33:13.124Z,13.73
2018-12-29T12:35:42.811Z,13.20
2018-12-29T12:38:15.456Z,11.10
2018-12-29T12:40:45.204Z,11.97
2018-12-29T12:43:16.999Z,11.10
2018-12-29T12:45:46.209Z,12.87
2018-12-29T12:48:19.919Z,14.20
2018-12-29T12:50:50.421Z,9.83
2018-12-29T12:53:22.925Z,12.63
2018-12-29T12:55:52.688Z,12.53
2018-12-29T12:58:25.017Z,14.43
2018-12-29T13:00:55.388Z,14.30
2018-12-29T13:03:27.652Z,11.87
2018-12-29T13:05:57.628Z,13.00
2018-12-29T13:08:30.071Z,12.90
2018-12-29T13:10:59.770Z,12.67
2018-12-29T13:13:33.172Z,19.80
2018-12-29T13:16:02.855Z,17.67
2018-12-29T13:18:34.020Z,20.60
2018-12-29T13:21:04.036Z,16.20
2018-12-29T13:23:38.627Z,17.13
2018-12-29T13:26:07.818Z,13.07
2018-12-29T13:28:40.374Z,12.50
2018-12-29T13:31:09.408Z,11.70
2018-12-29T13:33:42.657Z,14.37
2018-12-29T13:36:11.896Z,11.10
2018-12-29T13:38:47.889Z,11.30
2018-12-29T13:41:17.916Z,14.03
2018-12-29T13:43:49.944Z,12.30
2018-12-29T13:46:22.120Z,11.50
2018-12-29T13:48:53.347Z,12.00
2018-12-29T13:51:22.380Z,11.30
2018-12-29T13:53:55.060Z,11.03
2018-12-29T13:56:24.812Z,18.83
2018-12-29T13:58:57.600Z,16.07
2018-12-29T14:01:27.627Z,15.87
2018-12-29T14:04:02.020Z,16.13
2018-12-29T14:06:31.375Z,17.63
2018-12-29T14:09:04.782Z,18.03
2018-12-29T14:11:33.823Z,19.40
2018-12-29T14:14:07.250Z,18.70
2018-12-29T14:16:36.538Z,17.60
2018-12-29T14:19:11.297Z,17.80
2018-12-29T14:21:40.995Z,15.43
2018-12-29T14:24:12.838Z,15.13
2018-12-29T14:26:41.862Z,16.07
2018-12-29T14:29:18.146Z,16.67
2018-12-29T14:31:47.493Z,12.63
2018-12-29T14:34:19.205Z,10.27
2018-12-29T14:36:48.234Z,12.57
2018-12-29T14:39:21.477Z,12.40
2018-12-29T14:41:50.595Z,13.00
2018-12-29T14:44:23.512Z,11.37
2018-12-29T14:46:53.604Z,9.47
2018-12-29T14:49:25.372Z,9.73
2018-12-29T14:51:55.095Z,7.47
2018-12-29T14:54:32.114Z,10.57
2018-12-29T14:57:01.198Z,6.50
2018-12-29T14:59:31.661Z,7.97
2018-12-29T15:02:01.792Z,6.17
2018-12-29T15:04:35.800Z,5.50
2018-12-29T15:07:04.832Z,5.03
2018-12-29T15:09:36.204Z,5.27
2018-12-29T15:12:05.988Z,3.53
2018-12-29T15:14:41.279Z,6.33
2018-12-29T15:17:10.456Z,5.80
2018-12-29T15:19:40.820Z,5.80
2018-12-29T15:22:10.530Z,6.03
2018-12-29T15:24:45.739Z,6.57
2018-12-29T15:27:15.823Z,4.60
2018-12-29T15:29:48.589Z,8.47
2018-12-29T15:32:17.915Z,4.77
2018-12-29T15:34:50.149Z,6.73
2018-12-29T15:37:22.097Z,7.23
2018-12-29T15:39:53.913Z,5.73
2018-12-29T15:42:23.379Z,4.87
2018-12-29T15:44:55.575Z,7.93
2018-12-29T15:47:24.580Z,7.00
2018-12-29T15:49:59.721Z,4.93
2018-12-29T15:52:28.748Z,5.60
2018-12-29T15:55:03.793Z,6.30
2018-12-29T15:57:32.800Z,7.93
2018-12-29T16:00:07.873Z,6.43
2018-12-29T16:02:37.862Z,6.37
2018-12-29T16:05:09.564Z,6.87
2018-12-29T16:07:41.513Z,6.03
2018-12-29T16:10:13.367Z,13.63
2018-12-29T16:12:43.076Z,11.67
2018-12-29T16:15:16.291Z,11.27
2018-12-29T16:17:45.581Z,10.53
2018-12-29T16:20:17.811Z,12.97
2018-12-29T16:22:47.737Z,8.70
2018-12-29T16:25:20.146Z,9.63
2018-12-29T16:27:49.852Z,9.37
2018-12-29T16:30:22.557Z,9.37
2018-12-29T16:32:53.224Z,10.57
2018-12-29T16:35:26.872Z,8.03
2018-12-29T16:37:56.345Z,8.27
2018-12-29T16:40:30.238Z,8.63
2018-12-29T16:42:59.895Z,7.83
2018-12-29T16:45:31.776Z,8.50
2018-12-29T16:48:00.809Z,8.53
2018-12-29T16:50:34.606Z,11.37
2018-12-29T16:53:05.610Z,11.30
2018-12-29T16:55:36.153Z,11.67
2018-12-29T16:58:05.872Z,11.33
2018-12-29T17:00:39.364Z,10.23
2018-12-29T17:03:08.544Z,10.53
2018-12-29T17:05:44.467Z,9.43
2018-12-29T17:08:13.779Z,10.37
2018-12-29T17:10:46.033Z,12.57
2018-12-29T17:13:15.173Z,10.23
2018-12-29T17:15:48.102Z,10.00
2018-12-29T17:18:17.123Z,12.00
2018-12-29T17:20:51.345Z,9.33
2018-12-29T17:23:20.368Z,11.70
2018-12-29T17:25:54.392Z,13.50
2018-12-29T17:28:24.072Z,11.43
2018-12-29T17:31:01.467Z,11.53
2018-12-29T17:33:30.588Z,10.97
2018-12-29T17:36:01.336Z,10.63
2018-12-29T17:38:30.388Z,12.87
2018-12-29T17:41:03.836Z,12.23
2018-12-29T17:43:32.849Z,12.00
2018-12-29T17:46:06.948Z,13.07
2018-12-29T17:48:36.773Z,10.97
2018-12-29T17:51:11.581Z,12.50
2018-12-29T17:53:47.803Z,13.60
2018-12-29T17:56:15.544Z,9.63
2018-12-29T17:58:44.561Z,13.60
2018-12-29T18:01:17.890Z,13.20
2018-12-29T18:03:47.291Z,13.47
2018-12-29T18:06:20.168Z,11.67
2018-12-29T18:08:49.892Z,12.87
2018-12-29T18:11:22.048Z,14.17
2018-12-29T18:13:51.072Z,16.40
2018-12-29T18:16:24.003Z,14.87
2018-12-29T18:18:53.314Z,17.50
2018-12-29T18:21:28.011Z,16.93
2018-12-29T18:23:57.727Z,16.70
2018-12-29T18:26:29.621Z,16.27
2018-12-29T18:28:59.340Z,20.33
2018-12-29T18:31:33.830Z,22.03
2018-12-29T18:34:08.992Z,22.20
2018-12-29T18:36:38.422Z,24.33
2018-12-29T18:39:08.324Z,23.83
2018-12-29T18:41:38.905Z,25.83
2018-12-29T18:44:09.191Z,26.27
2018-12-29T18:46:41.241Z,23.90
2018-12-29T18:49:10.988Z,27.20
2018-12-29T18:51:45.319Z,23.00
2018-12-29T18:54:14.480Z,28.67
2018-12-29T18:56:46.937Z,24.80
2018-12-29T18:59:18.832Z,30.53
2018-12-29T19:01:57.398Z,30.77
2018-12-29T19:04:21.008Z,27.73
2018-12-29T19:06:53.943Z,30.37
2018-12-29T19:09:23.651Z,30.93
2018-12-29T19:11:55.551Z,26.03
2018-12-29T19:14:24.658Z,31.20
2018-12-29T19:16:59.200Z,29.83
2018-12-29T19:19:29.536Z,30.90
2018-12-29T19:22:02.712Z,32.43
2018-12-29T19:24:31.761Z,28.67
2018-12-29T19:27:06.245Z,30.27
2018-12-29T19:29:35.942Z,31.43
2018-12-29T19:32:08.360Z,29.97
2018-12-29T19:34:39.618Z,29.87
2018-12-29T19:37:14.171Z,34.87
2018-12-29T19:39:44.418Z,37.07
2018-12-29T19:42:17.314Z,33.07
2018-12-29T19:44:47.331Z,34.07
2018-12-29T19:47:16.972Z,33.57
2018-12-29T19:49:53.586Z,30.67
2018-12-29T19:52:22.095Z,36.63
2018-12-29T19:54:51.182Z,37.53
2018-12-29T19:57:22.964Z,36.60
2018-12-29T19:59:52.270Z,37.03
2018-12-29T20:02:25.531Z,37.47
2018-12-29T20:04:55.211Z,37.63
2018-12-29T20:07:28.088Z,36.23
2018-12-29T20:09:57.108Z,39.97
2018-12-29T20:12:31.271Z,37.67
2018-12-29T20:15:00.953Z,37.90
2018-12-29T20:17:35.110Z,39.40
2018-12-29T20:20:05.390Z,37.77
2018-12-29T20:22:35.962Z,40.03
2018-12-29T20:25:05.134Z,36.83
2018-12-29T20:27:38.676Z,39.00
2018-12-29T20:30:08.251Z,39.17
2018-12-29T20:32:40.644Z,41.27
2018-12-29T20:35:10.747Z,40.63
2018-12-29T20:37:45.160Z,37.10
2018-12-29T20:40:14.982Z,40.27
2018-12-29T20:42:47.931Z,40.10
2018-12-29T20:45:17.664Z,37.67
2018-12-29T20:47:50.054Z,42.60
2018-12-29T20:50:19.764Z,44.73
2018-12-29T20:52:52.571Z,42.13
2018-12-29T20:55:22.579Z,34.13
2018-12-29T20:57:55.687Z,47.03
2018-12-29T21:00:25.907Z,39.37
2018-12-29T21:02:58.735Z,35.30
2018-12-29T21:05:28.569Z,41.67
2018-12-29T21:08:02.345Z,40.57
2018-12-29T21:10:32.075Z,37.77
2018-12-29T21:13:09.397Z,28.67
2018-12-29T21:15:40.215Z,35.70
2018-12-29T21:18:10.303Z,33.63
2018-12-29T21:20:39.992Z,33.07
2018-12-29T21:23:14.052Z,30.37
2018-12-29T21:25:44.047Z,39.83
2018-12-29T21:28:16.115Z,41.67
2018-12-29T21:30:46.140Z,40.90
2018-12-29T21:33:18.505Z,39.30
2018-12-29T21:35:48.188Z,39.07
2018-12-29T21:38:21.856Z,42.07
2018-12-29T21:40:51.557Z,39.67
2018-12-29T21:43:23.828Z,35.90
2018-12-29T21:45:54.589Z,33.97
2018-12-29T21:48:27.601Z,28.07
2018-12-29T21:50:59.072Z,26.53
2018-12-29T21:53:29.000Z,25.37
2018-12-29T21:55:58.704Z,31.13
2018-12-29T21:58:32.710Z,28.43
2018-12-29T22:01:02.447Z,29.27
2018-12-29T22:03:35.183Z,25.77
2018-12-29T22:06:08.115Z,27.63
2018-12-29T22:08:37.446Z,24.33
2018-12-29T22:11:07.434Z,25.97
2018-12-29T22:13:39.276Z,22.83
2018-12-29T22:16:09.264Z,26.03
2018-12-29T22:18:42.959Z,23.83
2018-12-29T22:21:12.695Z,32.10
2018-12-29T22:23:45.697Z,17.67
2018-12-29T22:26:15.455Z,18.73
2018-12-29T22:28:46.883Z,23.90
2018-12-29T22:31:16.850Z,14.77
2018-12-29T22:33:51.644Z,17.47
2018-12-29T22:36:20.668Z,18.17
2018-12-29T22:38:54.861Z,14.30
2018-12-29T22:41:24.527Z,20.30
2018-12-29T22:43:59.256Z,15.50
2018-12-29T22:46:28.975Z,18.93
2018-12-29T22:49:03.981Z,17.97
2018-12-29T22:51:33.989Z,21.80
2018-12-29T22:54:08.376Z,25.40
2018-12-29T22:56:38.056Z,17.47
2018-12-29T22:59:13.132Z,21.43
2018-12-29T23:01:42.148Z,24.53
2018-12-29T23:04:13.612Z,23.10
2018-12-29T23:06:43.599Z,19.03
2018-12-29T23:09:16.004Z,18.87
2018-12-29T23:11:45.085Z,15.13
2018-12-29T23:14:19.872Z,17.33
2018-12-29T23:16:49.751Z,16.23
2018-12-29T23:19:22.008Z,15.97
2018-12-29T23:21:51.731Z,12.47
2018-12-29T23:24:23.797Z,14.73
2018-12-29T23:26:53.459Z,18.23
2018-12-29T23:29:26.081Z,21.13
2018-12-29T23:31:55.800Z,18.07
2018-12-29T23:34:27.162Z,15.17
2018-12-29T23:36:56.490Z,23.13
2018-12-29T23:39:32.278Z,19.20
2018-12-29T23:42:02.456Z,12.00
2018-12-29T23:44:34.245Z,22.17
2018-12-29T23:47:04.945Z,14.63
2018-12-29T23:49:38.892Z,15.27
2018-12-29T23:52:08.464Z,9.43
2018-12-29T23:54:39.851Z,9.67
2018-12-29T23:57:09.936Z,13.83
2018-12-29T23:59:49.259Z,18.00
